CheckWX is a tool to help pilots better visualize weather data.  It is not intended as a substitute for an official pre-flight weather briefing.

00:16:34 UTC

KPSP TAF
Palm Springs International Airport
Palm Springs, California, USA
KPSP 260520Z 2606/2706 31011KT P6SM SKC FM260700 VRB05KT P6SM SKC FM270100 32011KT P6SM SKC

May-26@
06:00 UTC

May-26 @ 06:00 UTC

May-26@
07:00 UTC

May-26 @ 07:00 UTC

TAF KPSP 260520Z 2606/2706 31011KT P6SM SKC

Expired

Wind
  • 310° at 11 KTS
Cloud Levels
  • Clear skies

May-26@
07:00 UTC

May-26 @ 07:00 UTC

May-27@
01:00 UTC

May-27 @ 01:00 UTC

FM260700 VRB05KT P6SM SKC

From

From Standard forecast or significant change

Wind
  • Variable at 5 KTS
Cloud Levels
  • Clear skies

May-27@
01:00 UTC

May-27 @ 01:00 UTC

May-27@
06:00 UTC

May-27 @ 06:00 UTC

FM270100 32011KT P6SM SKC

From

From Standard forecast or significant change

Wind
  • 320° at 11 KTS
Cloud Levels
  • Clear skies